Weather at Fairview Riverside Medical Center Heliport

Public forecast

Using degrees Fahrenheit for public forecast. Weather courtesy of forecast.io.

Closest aviation weather report (METAR) to Fairview Riverside Medical Center Heliport

Closest report is Minneapolis–Saint Paul International Airport / Wold–Chamberlain Field, 5.2 nm (9.6 km) S. Retrieved 2021/07/27 23:53 UTC (7 minutes ago):

KMSP 272353Z 00000KT 10SM SCT041 SCT055 BKN250 33/23 A2993 RMK AO2 SLP130 T03330228 10339 20311 55004

Closest aviation forecast (TAF) to Fairview Riverside Medical Center Heliport

Closest forecast is Minneapolis–Saint Paul International Airport / Wold–Chamberlain Field, 5.2 nm (9.6 km) S. Retrieved 2021-07-28 00:36 UTC (0 seconds ago):

TAF KMSP 272333Z 2800/2906 VRB04KT P6SM FEW035 FEW250 FM280200 10005KT P6SM FEW250 PROB30 2813/2815 3SM -TSRA BKN050CB FM281600 20012G20KT P6SM SCT150